Portada
METAR-TAF:

METAR-TAF

Aeropuertos :

Aeropuerto Internacional Diori Hamani

Niamey, Níger

latitud: 13-29N, longitud: 002-10E, altitud: 223 m

Observación

El informe se hizo hace 1 hora y 21 minutos, a las 19:00 UTC
Viento 5 kt del noreste
Temperatura 30°C
Humedad 13%
Presión 1010 hPa
Visibilidad: 7000 m

METAR: DRRN 131900Z 05005KT 7000 NSC 30/M01 Q1010 NOSIG

Hora: 21:21 (20:21 UTC)

Pronóstico

El informe se hizo hace 3 horas y 21 minutos, a las 17:00 UTC
Pronóstico válido del 13 a las 18 UTC al 14 a las 24 UTC
Viento 8 kt del este
Visibilidad: 8000 m
Temporalmente
del 13 a las 18 UTC al 13 a las 20 UTC
Visibilidad: 4500 m
Polvo extendido
Temporalmente
del 14 a las 06 UTC al 14 a las 09 UTC
Visibilidad: 4000 m
Polvo extendido

TAF: DRRN 131700Z 1318/1424 08008KT 8000 NSC TEMPO 1318/1320 4500 DU TEMPO 1406/1409 4000 DU

Observaciones y pronósticos meteorológicos de más de 4000 aeropuertos (mensajes METAR y TAF).

Los puntos amarillos y rojos representan las estaciones disponibles.

Ponga el ratón en el punto deseado para ver el nombre de la estación.

Haga clic para ver las observaciones y los pronósticos meteorológicos.

Para cambiar el mapa : haga clic en los botones verdes con una cruz de color negro para hacer un zoom, en el botón verde con un guión para alejar o en las flechas verdes para mapas adyacentes.


METAR-TAF: